Time;durP1;ratioP1;P1;durP2;ratioP2;P2;SDS_P1;SDS_P2;PMS_P1;PMS_P2;Temp;Humidity;BMP_temperature;BMP_pressure;BME280_temperature;BME280_humidity;BME280_pressure;Samples;Min_cycle;Max_cycle;Signal;HPM_P1;HPM_P2
2024/02/20 00:00:46;;;;;;;1.33;0.70;;;10.90;99.90;;;;;;4164504;28;20049;-55
2024/02/20 00:02:50;;;;;;;4.68;1.00;;;11.00;99.90;;;;;;4164897;28;20080;-55
2024/02/20 00:04:52;;;;;;;3.58;1.33;;;11.00;99.90;;;;;;4164650;28;20128;-55
2024/02/20 00:06:54;;;;;;;5.43;1.23;;;11.00;99.90;;;;;;4164851;28;20163;-55
2024/02/20 00:08:56;;;;;;;5.25;0.80;;;11.00;99.90;;;;;;4164326;28;20057;-55
2024/02/20 00:10:59;;;;;;;3.53;0.88;;;11.00;99.90;;;;;;4164662;28;20049;-56
2024/02/20 00:13:03;;;;;;;;;;;11.00;99.90;;;;;;4165085;28;20045;-60
2024/02/20 00:15:08;;;;;;;1.30;0.60;;;11.00;99.90;;;;;;4164689;28;20346;-55
2024/02/20 00:17:10;;;;;;;;;;;11.00;99.90;;;;;;4165343;28;20045;-63
2024/02/20 00:19:14;;;;;;;3.83;0.93;;;11.00;99.90;;;;;;4165402;28;19920;-60
2024/02/20 00:21:17;;;;;;;3.50;0.80;;;11.00;99.90;;;;;;4165052;28;20053;-55
2024/02/20 00:23:19;;;;;;;5.35;0.60;;;10.90;99.90;;;;;;4164914;28;20049;-55
2024/02/20 00:25:22;;;;;;;2.42;0.70;;;10.90;99.90;;;;;;4165442;28;20056;-55
2024/02/20 00:27:24;;;;;;;5.25;0.90;;;10.90;99.90;;;;;;4165643;28;20091;-55
2024/02/20 00:29:26;;;;;;;7.45;0.85;;;10.90;99.90;;;;;;4164606;28;20471;-55
2024/02/20 00:31:28;;;;;;;4.70;0.70;;;10.90;99.90;;;;;;4164663;28;20133;-56
2024/02/20 00:33:31;;;;;;;9.80;2.75;;;11.00;99.90;;;;;;4164183;28;20066;-55
2024/02/20 00:35:35;;;;;;;3.90;0.68;;;11.00;99.90;;;;;;4164418;28;20412;-55
2024/02/20 00:37:37;;;;;;;1.27;0.57;;;10.90;99.90;;;;;;4164004;28;20073;-56
2024/02/20 00:39:40;;;;;;;2.15;0.82;;;10.90;99.90;;;;;;4148342;28;20049;-60
2024/02/20 00:41:42;;;;;;;5.38;1.17;;;11.00;99.90;;;;;;4149545;28;20520;-56
2024/02/20 00:43:44;;;;;;;4.20;1.85;;;10.90;99.90;;;;;;4148942;28;20046;-60
2024/02/20 00:45:46;;;;;;;4.40;0.90;;;10.90;99.90;;;;;;4148882;28;20389;-55
2024/02/20 00:47:48;;;;;;;1.88;1.13;;;10.90;99.90;;;;;;4148744;28;20057;-55
2024/02/20 00:49:51;;;;;;;3.70;0.60;;;11.00;99.90;;;;;;4147967;28;20508;-55
2024/02/20 00:51:54;;;;;;;2.20;0.88;;;10.90;99.90;;;;;;4148133;28;20452;-56
2024/02/20 00:53:56;;;;;;;2.65;0.90;;;10.80;99.90;;;;;;4147821;28;20042;-56
2024/02/20 00:55:59;;;;;;;2.42;1.10;;;10.80;99.90;;;;;;4148055;28;20050;-55
2024/02/20 00:58:01;;;;;;;2.35;0.80;;;10.80;99.90;;;;;;4149686;28;20402;-55
2024/02/20 01:00:05;;;;;;;4.30;1.80;;;10.90;99.90;;;;;;4151223;28;20551;-55
2024/02/20 01:02:10;;;;;;;4.97;0.88;;;10.80;99.90;;;;;;4151054;28;20234;-55
2024/02/20 01:04:14;;;;;;;5.78;0.90;;;10.90;99.90;;;;;;4150948;28;20104;-55
2024/02/20 01:06:18;;;;;;;2.55;1.73;;;10.80;99.90;;;;;;4150966;28;20081;-55
2024/02/20 01:08:21;;;;;;;2.88;1.42;;;10.80;99.90;;;;;;4150610;28;20192;-55
2024/02/20 01:10:24;;;;;;;7.85;2.30;;;10.70;99.90;;;;;;4151077;28;20454;-55
2024/02/20 01:12:26;;;;;;;4.18;1.73;;;10.70;99.90;;;;;;4151010;28;20460;-55
2024/02/20 01:14:30;;;;;;;6.45;1.27;;;10.80;99.90;;;;;;4151168;28;20042;-55
2024/02/20 01:16:32;;;;;;;2.28;1.25;;;10.70;99.90;;;;;;4150991;28;20045;-56
2024/02/20 01:18:41;;;;;;;5.35;1.85;;;10.70;99.90;;;;;;4151061;28;20050;-55
2024/02/20 01:20:44;;;;;;;11.15;2.95;;;10.70;99.90;;;;;;4154452;28;20046;-56
2024/02/20 01:22:46;;;;;;;5.55;1.25;;;10.60;99.90;;;;;;4153929;28;20041;-61
2024/02/20 01:24:49;;;;;;;1.92;0.98;;;10.60;99.90;;;;;;4150294;28;20072;-55
2024/02/20 01:26:51;;;;;;;8.60;1.75;;;10.60;99.90;;;;;;4133299;28;20054;-56
2024/02/20 01:28:53;;;;;;;5.25;1.20;;;10.60;99.90;;;;;;4151077;28;20050;-55
2024/02/20 01:30:56;;;;;;;8.57;1.05;;;10.60;99.90;;;;;;4151406;28;20046;-57
2024/02/20 01:32:58;;;;;;;4.22;1.38;;;10.60;99.90;;;;;;4151261;28;20062;-57
2024/02/20 01:35:00;;;;;;;4.90;1.17;;;10.60;99.90;;;;;;4152993;28;20046;-56
2024/02/20 01:37:03;;;;;;;4.30;1.27;;;10.60;99.90;;;;;;4152075;28;20052;-55
2024/02/20 01:39:05;;;;;;;10.85;1.40;;;10.60;99.90;;;;;;4163278;28;20059;-55
2024/02/20 01:41:09;;;;;;;4.25;1.17;;;10.60;99.90;;;;;;4149353;28;20050;-55
2024/02/20 01:43:11;;;;;;;5.00;1.60;;;10.60;99.90;;;;;;4166848;28;20518;-55
2024/02/20 01:45:14;;;;;;;6.22;1.83;;;10.60;99.90;;;;;;4167050;28;20050;-55
2024/02/20 01:47:17;;;;;;;3.50;1.35;;;10.60;99.90;;;;;;4166939;28;20175;-55
2024/02/20 01:49:19;;;;;;;5.18;1.90;;;10.60;99.90;;;;;;4166914;28;20041;-55
2024/02/20 01:51:23;;;;;;;6.25;1.42;;;10.50;99.90;;;;;;4166374;28;20046;-54
2024/02/20 01:53:25;;;;;;;3.97;1.58;;;10.50;99.90;;;;;;4167030;28;20556;-58
2024/02/20 01:55:28;;;;;;;4.43;1.88;;;10.50;99.90;;;;;;4166863;28;20497;-55
2024/02/20 01:57:31;;;;;;;3.13;0.93;;;10.40;99.90;;;;;;4150072;28;20046;-55
2024/02/20 01:59:34;;;;;;;5.97;1.77;;;10.40;99.90;;;;;;4168063;28;20068;-63
2024/02/20 02:01:38;;;;;;;2.97;1.45;;;10.50;99.90;;;;;;4169099;28;20046;-57
2024/02/20 02:03:41;;;;;;;3.38;1.17;;;10.50;99.90;;;;;;4169299;28;20439;-62
2024/02/20 02:05:43;;;;;;;3.72;1.45;;;10.50;99.90;;;;;;4169221;28;20505;-57
2024/02/20 02:07:48;;;;;;;4.43;2.28;;;10.50;99.90;;;;;;4168773;28;20049;-57
2024/02/20 02:09:50;;;;;;;;;;;10.60;99.90;;;;;;4169772;28;20080;-56
2024/02/20 02:11:53;;;;;;;5.10;2.10;;;10.60;99.90;;;;;;4169361;28;20015;-57
2024/02/20 02:13:57;;;;;;;3.90;1.70;;;10.50;99.90;;;;;;4167192;28;20489;-56
2024/02/20 02:15:59;;;;;;;3.38;2.05;;;10.60;99.90;;;;;;4166577;28;20413;-56
2024/02/20 02:18:01;;;;;;;6.40;1.50;;;10.60;99.90;;;;;;4166324;28;20499;-56
2024/02/20 02:20:06;;;;;;;2.53;1.10;;;10.70;99.90;;;;;;4166103;28;20049;-57
2024/02/20 02:22:09;;;;;;;13.95;2.38;;;10.70;99.90;;;;;;4166366;28;20046;-56
2024/02/20 02:24:12;;;;;;;3.03;1.40;;;10.60;99.90;;;;;;4166435;28;20045;-56
2024/02/20 02:26:16;;;;;;;6.30;2.03;;;10.70;99.90;;;;;;4166250;28;20049;-56
2024/02/20 02:28:18;;;;;;;3.47;1.33;;;10.60;99.90;;;;;;4166054;28;20071;-56
2024/02/20 02:30:22;;;;;;;4.53;1.67;;;10.70;99.90;;;;;;4166357;28;20045;-56
2024/02/20 02:32:24;;;;;;;1.67;1.03;;;10.80;99.90;;;;;;4166252;28;20056;-56
2024/02/20 02:34:29;;;;;;;6.78;1.38;;;10.80;99.90;;;;;;4165885;28;20425;-55
2024/02/20 02:36:32;;;;;;;15.73;2.03;;;10.80;99.90;;;;;;4166215;28;20480;-56
2024/02/20 02:38:34;;;;;;;5.10;1.38;;;10.70;99.90;;;;;;4165966;28;20049;-56
2024/02/20 02:40:36;;;;;;;3.88;1.73;;;10.70;99.90;;;;;;4165943;28;20456;-62
2024/02/20 02:42:39;;;;;;;2.00;1.30;;;10.80;99.90;;;;;;4165757;28;20045;-56
2024/02/20 02:44:43;;;;;;;4.47;1.17;;;10.80;99.90;;;;;;4165602;28;20049;-55
2024/02/20 02:46:46;;;;;;;2.72;1.15;;;10.80;99.90;;;;;;4165953;28;20136;-56
2024/02/20 02:48:50;;;;;;;4.68;1.55;;;10.90;99.90;;;;;;4165308;28;20045;-56
2024/02/20 02:50:52;;;;;;;5.90;1.70;;;10.90;99.90;;;;;;4165946;28;20300;-56
2024/02/20 02:52:54;;;;;;;6.63;1.95;;;10.90;99.90;;;;;;4165387;28;20515;-58
2024/02/20 02:54:57;;;;;;;3.13;1.58;;;10.90;99.90;;;;;;4147984;28;20050;-56
2024/02/20 02:56:59;;;;;;;8.40;2.00;;;10.90;99.90;;;;;;4165596;28;20041;-56
2024/02/20 02:59:04;;;;;;;2.85;1.30;;;10.80;99.90;;;;;;4165615;28;20481;-56
2024/02/20 03:01:07;;;;;;;4.75;1.55;;;10.90;99.90;;;;;;4165525;28;20072;-56
2024/02/20 03:03:11;;;;;;;2.45;1.10;;;10.90;99.90;;;;;;4165315;28;20049;-55
2024/02/20 03:05:13;;;;;;;4.43;1.70;;;11.00;99.90;;;;;;4165329;28;20041;-56
2024/02/20 03:07:15;;;;;;;5.00;2.10;;;10.90;99.90;;;;;;4165287;28;20386;-56
2024/02/20 03:09:21;;;;;;;8.40;3.05;;;11.00;99.90;;;;;;4165339;28;20049;-56
2024/02/20 03:11:24;;;;;;;3.20;1.17;;;11.00;99.90;;;;;;4147737;28;20053;-56
2024/02/20 03:13:27;;;;;;;5.03;1.50;;;11.00;99.90;;;;;;4165557;28;20145;-56
2024/02/20 03:15:30;;;;;;;6.05;2.33;;;10.90;99.90;;;;;;4165443;28;20057;-56
2024/02/20 03:17:33;;;;;;;2.70;1.50;;;10.90;99.90;;;;;;4165503;28;20405;-63
2024/02/20 03:19:35;;;;;;;6.90;3.15;;;10.90;99.90;;;;;;4167154;28;20046;-63
2024/02/20 03:21:37;;;;;;;3.15;1.63;;;10.90;99.90;;;;;;4168333;28;20049;-62
2024/02/20 03:23:41;;;;;;;6.25;1.67;;;11.00;99.90;;;;;;4167795;28;20045;-60
2024/02/20 03:25:43;;;;;;;14.10;2.35;;;10.90;99.90;;;;;;4149123;28;20517;-56
2024/02/20 03:27:45;;;;;;;6.20;2.08;;;10.90;99.90;;;;;;4165201;28;20059;-56
2024/02/20 03:29:47;;;;;;;10.35;2.65;;;11.00;99.90;;;;;;4165185;28;20052;-55
2024/02/20 03:31:51;;;;;;;5.63;2.20;;;10.90;99.90;;;;;;4165322;28;20050;-59
2024/02/20 03:33:53;;;;;;;8.80;2.10;;;11.10;99.90;;;;;;4166050;28;20041;-56
2024/02/20 03:35:55;;;;;;;5.60;1.83;;;11.00;99.90;;;;;;4165815;28;20147;-56
2024/02/20 03:37:58;;;;;;;9.10;1.88;;;11.10;99.90;;;;;;4165198;28;20077;-55
2024/02/20 03:40:00;;;;;;;7.70;3.05;;;11.10;99.90;;;;;;4165469;28;20551;-56
2024/02/20 03:42:02;;;;;;;4.32;2.20;;;11.10;99.90;;;;;;4147940;28;20452;-56
2024/02/20 03:44:05;;;;;;;6.10;1.95;;;10.90;99.90;;;;;;4165202;28;20052;-55
2024/02/20 03:46:09;;;;;;;9.02;3.17;;;10.90;99.90;;;;;;4164325;28;20053;-56
2024/02/20 03:48:13;;;;;;;4.43;3.03;;;11.00;99.90;;;;;;4165607;28;20045;-56
2024/02/20 03:50:15;;;;;;;8.77;2.55;;;11.00;99.90;;;;;;4165710;28;20045;-56
2024/02/20 03:52:17;;;;;;;10.13;2.33;;;11.00;99.90;;;;;;4165319;28;20128;-56
2024/02/20 03:54:20;;;;;;;6.22;1.98;;;11.00;99.90;;;;;;4147589;28;20046;-61
2024/02/20 03:56:22;;;;;;;4.22;1.50;;;10.90;99.90;;;;;;4165344;28;20084;-56
2024/02/20 03:58:24;;;;;;;5.25;2.10;;;10.90;99.90;;;;;;4165015;28;20080;-55
2024/02/20 04:00:26;;;;;;;13.60;2.33;;;10.80;99.90;;;;;;4164816;28;20045;-56
2024/02/20 04:02:29;;;;;;;4.32;1.95;;;10.70;99.90;;;;;;4147765;28;20046;-56
2024/02/20 04:04:32;;;;;;;5.38;1.80;;;10.70;99.90;;;;;;4167031;28;20045;-57
2024/02/20 04:06:34;;;;;;;13.80;3.35;;;10.80;99.90;;;;;;4166706;28;20077;-57
2024/02/20 04:08:37;;;;;;;9.05;2.33;;;10.80;99.90;;;;;;4166105;28;20050;-56
2024/02/20 04:10:39;;;;;;;5.78;2.13;;;10.70;99.90;;;;;;4165163;28;20129;-56
2024/02/20 04:12:44;;;;;;;4.15;1.90;;;10.60;99.90;;;;;;4164700;28;20045;-56
2024/02/20 04:14:46;;;;;;;8.73;2.85;;;10.80;99.90;;;;;;4164693;28;20084;-55
2024/02/20 04:16:48;;;;;;;7.00;2.45;;;10.60;99.90;;;;;;4164384;28;20057;-55
2024/02/20 04:18:50;;;;;;;10.55;1.95;;;10.70;99.90;;;;;;4164716;28;20124;-56
2024/02/20 04:20:53;;;;;;;5.22;2.00;;;10.80;99.90;;;;;;4164799;28;20467;-55
2024/02/20 04:22:56;;;;;;;4.20;1.95;;;10.70;99.90;;;;;;4164746;28;20045;-55
2024/02/20 04:24:58;;;;;;;6.93;2.22;;;10.80;99.90;;;;;;4164558;28;20534;-55
2024/02/20 04:27:00;;;;;;;4.00;1.50;;;10.70;99.90;;;;;;4164722;28;20050;-57
2024/02/20 04:29:02;;;;;;;6.10;2.05;;;10.70;99.90;;;;;;4164598;28;20053;-57
2024/02/20 04:31:05;;;;;;;3.90;1.80;;;10.70;99.90;;;;;;4164161;28;20049;-55
2024/02/20 04:33:07;;;;;;;4.65;2.17;;;10.70;99.90;;;;;;4166431;28;20061;-57
2024/02/20 04:35:10;;;;;;;19.85;3.33;;;10.60;99.90;;;;;;4166507;28;20092;-56
2024/02/20 04:37:15;;;;;;;4.50;2.00;;;10.60;99.90;;;;;;4165927;28;20463;-57
2024/02/20 04:39:17;;;;;;;4.25;1.65;;;10.70;99.90;;;;;;4166371;28;20049;-56
2024/02/20 04:41:23;;;;;;;4.15;2.60;;;10.80;99.90;;;;;;4165675;28;20046;-56
2024/02/20 04:43:25;;;;;;;10.85;2.20;;;10.70;99.90;;;;;;4164354;28;20124;-56
2024/02/20 04:45:28;;;;;;;10.20;3.95;;;10.70;99.90;;;;;;4164248;28;20052;-56
2024/02/20 04:47:31;;;;;;;8.57;1.70;;;10.70;99.90;;;;;;4164477;28;20132;-59
2024/02/20 04:49:33;;;;;;;6.03;1.85;;;10.80;99.90;;;;;;4164566;28;20050;-56
2024/02/20 04:51:36;;;;;;;5.68;1.80;;;10.70;99.90;;;;;;4164243;28;20541;-55
2024/02/20 04:53:40;;;;;;;12.65;1.83;;;10.80;99.90;;;;;;4164150;28;20049;-55
2024/02/20 04:55:42;;;;;;;10.85;2.45;;;10.70;99.90;;;;;;4164329;28;20393;-54
2024/02/20 04:57:44;;;;;;;8.82;2.42;;;10.60;99.90;;;;;;4164116;28;20052;-56
2024/02/20 04:59:47;;;;;;;8.75;4.22;;;10.60;99.90;;;;;;4164004;28;20046;-56
2024/02/20 05:01:50;;;;;;;7.55;2.08;;;10.60;99.90;;;;;;4164328;28;20072;-56
2024/02/20 05:03:52;;;;;;;14.65;3.65;;;10.60;99.90;;;;;;4164542;28;20069;-63
2024/02/20 05:05:55;;;;;;;6.18;2.40;;;10.60;99.90;;;;;;4166863;28;20038;-55
2024/02/20 05:07:59;;;;;;;5.57;2.60;;;10.60;99.90;;;;;;4165450;28;20049;-55
2024/02/20 05:10:05;;;;;;;6.70;2.15;;;10.60;99.90;;;;;;4146868;28;20081;-55
2024/02/20 05:12:07;;;;;;;5.28;2.08;;;10.60;99.90;;;;;;4164192;28;20046;-56
2024/02/20 05:14:09;;;;;;;5.40;2.15;;;10.60;99.90;;;;;;4164582;28;20049;-55
2024/02/20 05:16:11;;;;;;;7.88;2.50;;;10.60;99.90;;;;;;4165156;28;20125;-55
2024/02/20 05:18:14;;;;;;;8.48;2.15;;;10.60;99.90;;;;;;4165341;28;20069;-55
2024/02/20 05:20:16;;;;;;;6.80;2.35;;;10.60;99.90;;;;;;4165406;28;20041;-55
2024/02/20 05:22:19;;;;;;;8.77;3.40;;;10.60;99.90;;;;;;4164682;28;20111;-56
2024/02/20 05:24:22;;;;;;;20.15;2.55;;;10.60;99.90;;;;;;4164187;28;20050;-55
2024/02/20 05:26:26;;;;;;;4.28;1.80;;;10.60;99.90;;;;;;4146647;28;20049;-55
2024/02/20 05:28:28;;;;;;;9.07;3.35;;;10.60;99.90;;;;;;4163653;28;20048;-55
2024/02/20 05:30:30;;;;;;;6.50;2.00;;;10.60;99.90;;;;;;4164396;28;20073;-55
2024/02/20 05:32:32;;;;;;;7.70;2.03;;;10.70;99.90;;;;;;4166327;28;20077;-55
2024/02/20 05:34:34;;;;;;;6.13;2.20;;;10.70;99.90;;;;;;4165359;28;20049;-55
2024/02/20 05:36:36;;;;;;;5.05;2.15;;;10.60;99.90;;;;;;4164144;28;20045;-59
2024/02/20 05:38:38;;;;;;;12.32;3.70;;;10.60;99.90;;;;;;4163658;28;20052;-56
2024/02/20 05:40:41;;;;;;;6.57;3.22;;;10.50;99.90;;;;;;4146463;28;20479;-58
2024/02/20 05:42:49;;;;;;;8.45;1.83;;;10.50;99.90;;;;;;4163574;28;20041;-58
2024/02/20 05:44:51;;;;;;;7.13;2.90;;;10.60;99.90;;;;;;4166840;28;20042;-58
2024/02/20 05:46:53;;;;;;;14.32;1.70;;;10.60;99.90;;;;;;4167298;28;20053;-61
2024/02/20 05:48:56;;;;;;;5.50;2.30;;;10.60;99.90;;;;;;4167095;28;20051;-59
2024/02/20 05:50:58;;;;;;;6.55;1.48;;;10.60;99.90;;;;;;4149269;28;20076;-58
2024/02/20 05:53:05;;;;;;;5.25;2.10;;;10.70;99.90;;;;;;4149121;28;20073;-58
2024/02/20 05:55:08;;;;;;;5.05;1.75;;;10.70;99.90;;;;;;4166799;28;20084;-58
2024/02/20 05:57:10;;;;;;;7.75;2.17;;;10.80;99.90;;;;;;4166553;28;20240;-58
2024/02/20 05:59:15;;;;;;;5.70;2.00;;;10.80;99.90;;;;;;4166895;28;20128;-58
2024/02/20 06:01:17;;;;;;;5.72;1.70;;;10.70;99.90;;;;;;4166705;28;20050;-58
2024/02/20 06:03:20;;;;;;;3.55;1.38;;;10.70;99.90;;;;;;4166792;28;20041;-59
2024/02/20 06:05:24;;;;;;;5.55;2.08;;;10.60;99.90;;;;;;4166593;28;20041;-58
2024/02/20 06:07:27;;;;;;;5.88;1.75;;;10.60;99.90;;;;;;4166323;28;20133;-58
2024/02/20 06:09:29;;;;;;;7.78;1.85;;;10.60;99.90;;;;;;4166757;28;20081;-58
2024/02/20 06:11:31;;;;;;;2.88;1.50;;;10.60;99.90;;;;;;4166285;28;20049;-58
2024/02/20 06:13:33;;;;;;;10.32;2.40;;;10.60;99.90;;;;;;4149138;28;20069;-58
2024/02/20 06:15:37;;;;;;;5.38;1.25;;;10.60;99.90;;;;;;4166588;28;20132;-58
2024/02/20 06:17:39;;;;;;;8.05;2.38;;;10.60;99.90;;;;;;4167740;28;20050;-58
2024/02/20 06:19:42;;;;;;;6.05;2.35;;;10.60;99.90;;;;;;4169654;28;20046;-59
2024/02/20 06:21:44;;;;;;;4.25;1.65;;;10.60;99.90;;;;;;4168945;28;20053;-62
2024/02/20 06:23:46;;;;;;;5.80;1.65;;;10.60;99.90;;;;;;4169070;28;20057;-64
2024/02/20 06:25:48;;;;;;;4.93;1.60;;;10.40;99.90;;;;;;4169326;28;20274;-67
2024/02/20 06:27:50;;;;;;;3.53;1.60;;;10.40;99.90;;;;;;4169640;28;20049;-60
2024/02/20 06:29:52;;;;;;;4.93;1.85;;;10.40;99.90;;;;;;4167329;28;20063;-58
2024/02/20 06:31:57;;;;;;;6.10;2.67;;;10.30;99.90;;;;;;4166428;28;20045;-58
2024/02/20 06:33:59;;;;;;;7.20;1.70;;;10.30;99.90;;;;;;4166787;28;20114;-58
2024/02/20 06:36:01;;;;;;;2.42;1.35;;;10.20;99.90;;;;;;4166407;28;20065;-58
2024/02/20 06:38:04;;;;;;;8.73;2.17;;;10.20;99.90;;;;;;4165974;28;20361;-59
2024/02/20 06:40:07;;;;;;;6.10;1.55;;;10.10;99.90;;;;;;4166049;28;20045;-58
2024/02/20 06:42:09;;;;;;;6.35;2.13;;;10.10;99.90;;;;;;4166335;28;20057;-58
2024/02/20 06:44:11;;;;;;;4.22;1.70;;;10.20;99.90;;;;;;4166478;28;20046;-58
2024/02/20 06:46:13;;;;;;;5.45;2.08;;;10.10;99.90;;;;;;4166192;28;20042;-59
2024/02/20 06:48:16;;;;;;;7.20;2.42;;;10.00;99.90;;;;;;4168344;28;20053;-59
2024/02/20 06:50:19;;;;;;;4.35;1.92;;;10.00;99.90;;;;;;4168369;28;20402;-60
2024/02/20 06:52:22;;;;;;;3.80;1.70;;;10.10;99.90;;;;;;4167816;28;20041;-58
2024/02/20 06:54:25;;;;;;;4.78;1.27;;;9.90;99.90;;;;;;4167480;28;20432;-59
2024/02/20 06:56:27;;;;;;;5.43;1.65;;;10.10;99.90;;;;;;4166145;28;20128;-58
2024/02/20 06:58:29;;;;;;;6.32;2.10;;;10.10;99.90;;;;;;4166683;28;20421;-58
2024/02/20 07:00:31;;;;;;;3.83;1.88;;;9.90;99.90;;;;;;4148439;28;20045;-59
2024/02/20 07:02:33;;;;;;;6.07;1.55;;;10.10;99.90;;;;;;4147904;28;20046;-59
2024/02/20 07:04:40;;;;;;;4.93;1.98;;;10.10;99.90;;;;;;4165344;28;20052;-58
2024/02/20 07:06:42;;;;;;;6.43;2.83;;;10.00;99.90;;;;;;4165683;28;20262;-58
2024/02/20 07:08:45;;;;;;;4.15;2.13;;;9.90;99.90;;;;;;4165523;28;20124;-59
2024/02/20 07:10:47;;;;;;;11.98;2.95;;;10.00;99.90;;;;;;4165094;28;20088;-59
2024/02/20 07:12:50;;;;;;;4.32;1.48;;;10.00;99.90;;;;;;4165709;28;20057;-57
2024/02/20 07:14:52;;;;;;;2.90;1.38;;;10.00;99.90;;;;;;4166617;28;20064;-57
2024/02/20 07:16:56;;;;;;;3.83;1.70;;;10.10;99.90;;;;;;4168139;28;20140;-59
2024/02/20 07:18:58;;;;;;;4.95;1.20;;;10.20;99.90;;;;;;4165981;28;20049;-57
2024/02/20 07:21:03;;;;;;;3.33;1.52;;;10.10;99.90;;;;;;4165949;28;20087;-58
2024/02/20 07:23:05;;;;;;;;;;;10.10;99.90;;;;;;4166029;28;20128;-58
2024/02/20 07:25:09;;;;;;;4.30;2.15;;;10.20;99.90;;;;;;4165099;28;20396;-63
2024/02/20 07:27:11;;;;;;;6.70;2.00;;;10.10;99.90;;;;;;4165278;28;20053;-58
2024/02/20 07:29:18;;;;;;;2.95;1.38;;;10.10;99.90;;;;;;4165348;28;20076;-62
2024/02/20 07:31:21;;;;;;;3.42;1.40;;;10.10;99.90;;;;;;4165387;28;20052;-58
2024/02/20 07:33:23;;;;;;;4.35;2.33;;;10.00;99.90;;;;;;4165089;28;20073;-61
2024/02/20 07:35:40;;;;;;;5.50;2.13;;;10.10;99.90;;;;;;4165269;28;20042;-55
2024/02/20 07:37:45;;;;;;;8.68;2.20;;;10.20;99.90;;;;;;4165263;28;20051;-55
2024/02/20 07:39:47;;;;;;;6.00;2.75;;;10.20;99.90;;;;;;4165409;28;20045;-55
2024/02/20 07:41:49;;;;;;;5.30;2.53;;;10.30;99.90;;;;;;4165589;28;20519;-55
2024/02/20 07:43:51;;;;;;;9.57;2.05;;;10.30;99.90;;;;;;4165273;28;20041;-55
2024/02/20 07:45:54;;;;;;;2.97;2.15;;;10.40;99.90;;;;;;4165288;28;20053;-54
2024/02/20 07:47:56;;;;;;;6.88;1.67;;;10.40;99.90;;;;;;4164933;28;20049;-54
2024/02/20 07:49:59;;;;;;;4.30;1.73;;;10.40;99.90;;;;;;4164576;28;20065;-54
2024/02/20 07:52:01;;;;;;;4.35;1.67;;;10.30;99.90;;;;;;4165138;28;20052;-54
2024/02/20 07:54:05;;;;;;;4.20;1.70;;;10.30;99.90;;;;;;4164506;28;20045;-55
2024/02/20 07:56:08;;;;;;;3.03;1.33;;;10.40;99.90;;;;;;4165304;28;20080;-56
2024/02/20 07:58:10;;;;;;;5.85;1.88;;;10.50;99.90;;;;;;4165877;28;20057;-55
2024/02/20 08:00:13;;;;;;;4.35;1.15;;;10.50;99.90;;;;;;4166150;28;20072;-55
2024/02/20 08:02:16;;;;;;;5.68;1.88;;;10.40;99.90;;;;;;4165951;28;20449;-55
2024/02/20 08:04:19;;;;;;;4.65;1.23;;;10.30;99.90;;;;;;4164919;28;20049;-55
2024/02/20 08:06:22;;;;;;;3.00;1.50;;;10.30;99.90;;;;;;4164221;28;20051;-55
2024/02/20 08:08:24;;;;;;;5.20;1.48;;;10.30;99.90;;;;;;4164570;28;20065;-55
2024/02/20 08:10:28;;;;;;;5.30;2.00;;;10.40;99.90;;;;;;4164287;28;20056;-55
2024/02/20 08:12:30;;;;;;;4.13;1.25;;;10.40;99.90;;;;;;4164909;28;20046;-55
2024/02/20 08:14:32;;;;;;;3.22;1.92;;;10.30;99.90;;;;;;4164604;28;20405;-54
2024/02/20 08:16:35;;;;;;;3.33;1.70;;;10.40;99.90;;;;;;4147182;28;20473;-55
2024/02/20 08:18:40;;;;;;;4.05;2.13;;;10.40;99.90;;;;;;4164496;28;20504;-56
2024/02/20 08:20:42;;;;;;;3.65;1.35;;;10.40;99.90;;;;;;4164988;28;20041;-55
2024/02/20 08:22:44;;;;;;;3.75;2.20;;;10.50;99.90;;;;;;4164311;28;20335;-55
2024/02/20 08:24:46;;;;;;;7.05;2.17;;;10.60;99.90;;;;;;4165237;28;20050;-55
2024/02/20 08:26:50;;;;;;;2.53;1.10;;;10.60;99.90;;;;;;4164467;28;20128;-55
2024/02/20 08:28:53;;;;;;;4.32;1.25;;;10.60;99.90;;;;;;4148149;28;20042;-55
2024/02/20 08:30:56;;;;;;;5.50;1.77;;;10.70;99.90;;;;;;4165763;28;20057;-56
2024/02/20 08:32:58;;;;;;;5.43;2.92;;;10.70;99.90;;;;;;4165502;28;20508;-55
2024/02/20 08:35:00;;;;;;;5.47;1.40;;;10.70;99.90;;;;;;4166456;28;20077;-64
2024/02/20 08:37:02;;;;;;;5.55;1.25;;;10.70;99.90;;;;;;4167129;28;20049;-56
2024/02/20 08:39:04;;;;;;;13.13;2.58;;;10.70;99.90;;;;;;4166452;28;20045;-55
2024/02/20 08:41:07;;;;;;;2.83;1.08;;;10.70;99.90;;;;;;4165181;28;20221;-56
2024/02/20 08:43:10;;;;;;;5.82;1.30;;;10.60;99.90;;;;;;4164674;28;20103;-55
2024/02/20 08:45:14;;;;;;;2.40;1.42;;;10.80;99.90;;;;;;4148018;28;20054;-60
2024/02/20 08:47:16;;;;;;;11.52;3.10;;;10.80;99.90;;;;;;4164666;28;20072;-55
2024/02/20 08:49:18;;;;;;;2.40;1.08;;;10.90;99.90;;;;;;4147538;28;20050;-55
2024/02/20 08:51:20;;;;;;;4.85;1.55;;;11.00;99.90;;;;;;4164322;28;20469;-55
2024/02/20 08:53:23;;;;;;;3.88;1.52;;;11.00;99.90;;;;;;4164588;28;20046;-55
2024/02/20 08:55:26;;;;;;;5.70;1.67;;;11.10;99.90;;;;;;4164447;28;20064;-55
2024/02/20 08:57:28;;;;;;;4.68;2.67;;;11.10;99.90;;;;;;4164329;28;20049;-55
2024/02/20 08:59:32;;;;;;;2.90;1.30;;;11.10;99.90;;;;;;4164324;28;20103;-56
2024/02/20 09:01:37;;;;;;;3.95;1.33;;;11.00;99.90;;;;;;4164163;28;20060;-56
2024/02/20 09:03:39;;;;;;;;;;;11.10;99.90;;;;;;4164972;28;20046;-55
2024/02/20 09:05:41;;;;;;;2.97;1.40;;;11.00;99.90;;;;;;4164158;28;19929;-55
2024/02/20 09:07:44;;;;;;;2.83;1.38;;;11.10;99.90;;;;;;4164714;28;20049;-56
2024/02/20 09:09:46;;;;;;;5.82;1.40;;;11.00;99.90;;;;;;4164146;28;20100;-55
2024/02/20 09:11:49;;;;;;;5.00;2.88;;;11.10;99.90;;;;;;4165042;28;20088;-55
2024/02/20 09:13:51;;;;;;;5.03;1.77;;;11.10;99.90;;;;;;4164444;28;20552;-55
2024/02/20 09:15:55;;;;;;;4.03;1.50;;;11.10;99.90;;;;;;4164418;28;20049;-55
2024/02/20 09:17:58;;;;;;;2.20;1.10;;;11.20;99.90;;;;;;4164265;28;20042;-55
2024/02/20 09:20:00;;;;;;;1.63;0.90;;;11.30;99.90;;;;;;4149201;28;20053;-54
2024/02/20 09:22:05;;;;;;;9.23;1.13;;;11.20;99.90;;;;;;4167462;28;20473;-60
2024/02/20 09:24:10;;;;;;;4.00;1.80;;;11.10;99.90;;;;;;4168161;28;20084;-55
2024/02/20 09:26:13;;;;;;;1.73;0.65;;;11.10;99.90;;;;;;4167554;28;20076;-54
2024/02/20 09:28:16;;;;;;;3.75;1.23;;;11.10;99.90;;;;;;4167142;28;20041;-55
2024/02/20 09:30:18;;;;;;;15.63;1.40;;;11.10;99.90;;;;;;4167933;28;20050;-61
2024/02/20 09:32:21;;;;;;;3.67;1.33;;;11.10;99.90;;;;;;4168627;28;20108;-61
2024/02/20 09:34:24;;;;;;;3.58;1.23;;;11.10;99.90;;;;;;4167139;28;20069;-57
2024/02/20 09:36:26;;;;;;;2.80;1.55;;;11.20;99.90;;;;;;4166984;28;20068;-57
2024/02/20 09:38:28;;;;;;;3.13;1.83;;;11.20;99.90;;;;;;4166897;28;20056;-57
2024/02/20 09:40:30;;;;;;;5.43;1.25;;;11.10;99.90;;;;;;4166814;28;20479;-57
2024/02/20 09:42:39;;;;;;;2.63;2.03;;;11.10;99.90;;;;;;4166803;28;20057;-57
2024/02/20 09:44:50;;;;;;;6.03;1.77;;;11.00;99.90;;;;;;4166869;28;20487;-57
2024/02/20 09:46:53;;;;;;;3.47;1.40;;;11.00;99.90;;;;;;4166501;28;20053;-57
2024/02/20 09:48:57;;;;;;;4.85;2.53;;;10.90;99.90;;;;;;4166430;28;20049;-57
2024/02/20 09:51:01;;;;;;;2.05;1.30;;;11.00;99.90;;;;;;4166999;28;20041;-54
2024/02/20 09:53:04;;;;;;;4.28;1.33;;;11.00;99.90;;;;;;4166614;28;20523;-55
2024/02/20 09:55:08;;;;;;;2.50;1.00;;;10.80;99.90;;;;;;4167011;28;20061;-54
2024/02/20 09:57:12;;;;;;;4.55;1.42;;;10.80;99.90;;;;;;4166802;28;20072;-56
2024/02/20 09:59:15;;;;;;;2.80;1.00;;;10.80;99.90;;;;;;4166769;28;20091;-57
2024/02/20 10:01:18;;;;;;;3.47;1.08;;;10.80;99.90;;;;;;4167055;28;20049;-61
2024/02/20 10:03:20;;;;;;;2.83;1.40;;;10.70;99.90;;;;;;4166350;28;20054;-57
2024/02/20 10:05:27;;;;;;;3.20;0.90;;;10.80;99.90;;;;;;4167533;28;20077;-57
2024/02/20 10:07:29;;;;;;;3.80;1.65;;;10.80;99.90;;;;;;4167108;28;20045;-58
2024/02/20 10:09:32;;;;;;;2.53;1.60;;;10.90;99.90;;;;;;4167287;28;20049;-57
2024/02/20 10:11:36;;;;;;;2.30;1.08;;;10.90;99.90;;;;;;4167725;28;20050;-56
2024/02/20 10:13:44;;;;;;;2.58;1.38;;;11.00;99.90;;;;;;4167797;28;20073;-55
2024/02/20 10:15:48;;;;;;;3.35;1.15;;;11.10;99.90;;;;;;4167247;28;20057;-56
2024/02/20 10:17:57;;;;;;;2.67;1.30;;;11.10;99.90;;;;;;4166188;28;20056;-56
2024/02/20 10:20:05;;;;;;;4.78;1.30;;;11.10;99.90;;;;;;4166487;28;20049;-56
2024/02/20 10:22:09;;;;;;;1.17;0.70;;;11.00;99.90;;;;;;4166814;28;20439;-56
2024/02/20 10:24:15;;;;;;;4.57;1.25;;;11.10;99.90;;;;;;4166327;28;20052;-56
2024/02/20 10:26:26;;;;;;;3.38;1.38;;;11.20;99.90;;;;;;4167088;28;20045;-58
2024/02/20 10:28:28;;;;;;;4.35;1.55;;;11.20;99.90;;;;;;4168547;28;20072;-56
2024/02/20 10:30:31;;;;;;;2.33;1.00;;;11.00;99.90;;;;;;4167563;28;20132;-58
2024/02/20 10:32:36;;;;;;;4.82;1.92;;;11.00;99.90;;;;;;4168169;28;20136;-57
2024/02/20 10:34:37;;;;;;;;;;;11.00;99.90;;;;;;4168157;28;20076;-57
2024/02/20 10:36:40;;;;;;;3.13;1.08;;;11.10;99.90;;;;;;4167992;28;19921;-58
2024/02/20 10:38:43;;;;;;;4.43;1.20;;;11.20;99.90;;;;;;4166039;28;20096;-57
2024/02/20 10:40:48;;;;;;;2.13;0.95;;;11.20;99.90;;;;;;4166254;28;20133;-57